Great Barrington, Massachusetts
Current Conditions -  °F | °C
As of 12:54 AM on Friday 31 Oct 2014 (Local Time) from KPSF Reporting Station
Clear Clear  
Wind Chill: 27°   Ceiling: Unl
Heat Index: 32°   Visibility: 10mi
Dew Point: 31°   Wind: 5mph
Humidity: 96%   Direction: 230°SW
Pressure: 30"   Gusts: NA
Location:  42.2°N, 73.36°W
Report Text: KPSF 310454Z AUTO 23004KT 10SM CLR 00/M01 A3000 RMK AO2 SLP160 T00001006 401060000
Loading
Personal Weather Stations






























Interactive Weather Map
Tropical Storm Tracking
New forecast layout! Learn more

10-Day Weather Forecast

Advertisements
Track Severe Weather on mobile